EDDM/MUC METAR and TAF weather

Enter ICAO airport designator
Station Type Date Time Source
EDDM METAR 2019/08/24 08:50 UTC NOAA

EDDM 240850Z 12003KT 080V200 9999 FEW020 22/17 Q1021 NOSIG


Station Type Date Time Source
EDDM Decoded METAR 2019/08/24 08:50 UTC NOAA

Station name not available
Aug 24, 2019 - 04:50 AM EDT / 2019.08.24 0850 UTC
Wind: from the ESE (120 degrees) at 3 MPH (3 KT) (direction variable):0
Visibility: greater than 7 mile(s):0
Sky conditions: mostly clear
Temperature: 71 F (22 C)
Dew Point: 62 F (17 C)
Relative Humidity: 73%
Pressure (altimeter): 30.15 in. Hg (1021 hPa)
ob: EDDM 240850Z 12003KT 080V200 9999 FEW020 22/17 Q1021 NOSIG
cycle: 9

Station Type Date Time Source
EDDM TAF 2019/08/24 06:27 UTC NOAA

TAF EDDM 240500Z 2406/2512 VRB03KT 9999 SCT025
BECMG 2407/2409 07005KT
BECMG 2417/2419 VRB03KT
TEMPO 2502/2506 0700 FG

Example: see airport list